Providence, Rhode Island
Traffic Map
Current Weather Conditions
Providence, Rhode Island
Few Clouds
Few Clouds
27°
Feels Like: 14°
Wind Chill: 14° Ceiling: Unl
Heat Index: 27° Visibility: 10mi
Dew Point: Wind: 17mph
Humidity: 41% Direction: 300° (WNW)
Pressure: 29.79in Gusts: 28mph
Raw Report DataKPVD 142051Z 30015G24KT 10SM FEW030 M03/M14 A2979 RMK AO2 SLP087 T10281144 53037
Traffic Incident Summary
Active as of:
Severity:
Category:
InformationThere was an issue retrieving the traffic information for this location. Please try a different location or try again shortly.
Advertisements